createdAt,value
2022-10-09T00:01:13.207Z,90.04
2022-10-09T00:03:42.085Z,89.56
2022-10-09T00:06:11.070Z,89.46
2022-10-09T00:08:39.509Z,89.95
2022-10-09T00:11:08.311Z,90.49
2022-10-09T00:13:36.569Z,90.15
2022-10-09T00:16:11.456Z,89.78
2022-10-09T00:18:39.054Z,89.86
2022-10-09T00:21:14.197Z,90.09
2022-10-09T00:23:41.409Z,89.96
2022-10-09T00:26:09.017Z,90.35
2022-10-09T00:28:38.658Z,90.18
2022-10-09T00:31:09.216Z,90.01
2022-10-09T00:33:37.408Z,90.26
2022-10-09T00:36:06.272Z,90.36
2022-10-09T00:38:34.434Z,90.17
2022-10-09T00:41:01.938Z,90.20
2022-10-09T00:43:50.165Z,90.11
2022-10-09T00:46:46.597Z,90.15
2022-10-09T00:49:27.420Z,89.81
2022-10-09T00:51:56.821Z,89.63
2022-10-09T00:54:25.763Z,90.42
2022-10-09T00:56:53.430Z,90.83
2022-10-09T00:59:20.947Z,90.68
2022-10-09T01:01:49.436Z,90.93
2022-10-09T01:04:17.019Z,91.33
2022-10-09T01:07:11.250Z,91.50
2022-10-09T01:09:59.592Z,91.18
2022-10-09T01:12:37.255Z,91.12
2022-10-09T01:15:24.838Z,91.14
2022-10-09T01:18:14.969Z,91.16
2022-10-09T01:20:48.240Z,91.37
2022-10-09T01:23:27.483Z,91.84
2022-10-09T01:25:54.721Z,91.81
2022-10-09T01:28:22.634Z,92.08
2022-10-09T01:30:50.183Z,91.85
2022-10-09T01:33:17.582Z,91.95
2022-10-09T01:35:45.704Z,92.23
2022-10-09T01:38:12.974Z,92.13
2022-10-09T01:40:40.289Z,91.95
2022-10-09T01:43:07.471Z,92.02
2022-10-09T01:45:39.855Z,91.62
2022-10-09T01:48:08.206Z,91.91
2022-10-09T01:50:39.773Z,92.29
2022-10-09T01:53:16.509Z,92.60
2022-10-09T01:55:51.369Z,92.38
2022-10-09T01:58:28.854Z,92.52
2022-10-09T02:01:09.774Z,92.50
2022-10-09T02:03:39.885Z,92.33
2022-10-09T02:06:08.944Z,92.74
2022-10-09T02:08:37.721Z,92.74
2022-10-09T02:11:05.473Z,92.71
2022-10-09T02:13:33.611Z,92.91
2022-10-09T02:16:06.396Z,92.59
2022-10-09T02:18:56.738Z,92.86
2022-10-09T02:21:43.024Z,93.00
2022-10-09T02:24:18.244Z,93.16
2022-10-09T02:26:45.466Z,93.24
2022-10-09T02:29:13.612Z,93.38
2022-10-09T02:31:42.711Z,92.85
2022-10-09T02:34:12.168Z,92.91
2022-10-09T02:36:41.116Z,93.33
2022-10-09T02:39:08.327Z,93.19
2022-10-09T02:41:36.453Z,93.24
2022-10-09T02:44:04.623Z,93.52
2022-10-09T02:46:32.067Z,93.45
2022-10-09T02:48:59.375Z,93.33
2022-10-09T02:51:26.984Z,93.62
2022-10-09T02:53:54.300Z,93.46
2022-10-09T02:56:22.862Z,93.61
2022-10-09T02:58:50.362Z,93.38
2022-10-09T03:01:18.016Z,93.67
2022-10-09T03:03:45.954Z,93.28
2022-10-09T03:06:15.351Z,93.27
2022-10-09T03:08:43.524Z,93.21
2022-10-09T03:11:12.382Z,93.46
2022-10-09T03:13:39.819Z,92.85
2022-10-09T03:16:12.572Z,92.75
2022-10-09T03:18:40.520Z,92.86
2022-10-09T03:21:09.222Z,92.95
2022-10-09T03:23:36.999Z,92.59
2022-10-09T03:26:07.851Z,92.79
2022-10-09T03:28:40.199Z,92.49
2022-10-09T03:31:08.004Z,93.00
2022-10-09T03:33:36.078Z,93.23
2022-10-09T03:36:03.441Z,92.60
2022-10-09T03:38:30.717Z,92.58
2022-10-09T03:41:01.925Z,93.19
2022-10-09T03:43:29.129Z,92.77
2022-10-09T03:46:00.911Z,92.90
2022-10-09T03:48:28.281Z,92.56
2022-10-09T03:50:55.448Z,92.34
2022-10-09T03:53:22.675Z,92.32
2022-10-09T03:55:50.090Z,92.29
2022-10-09T03:58:17.267Z,92.36
2022-10-09T04:00:46.144Z,92.02
2022-10-09T04:03:13.369Z,91.72
2022-10-09T04:05:40.550Z,91.64
2022-10-09T04:08:07.756Z,92.45
2022-10-09T04:10:34.937Z,91.82
2022-10-09T04:13:02.145Z,91.24
2022-10-09T04:15:29.338Z,91.64
2022-10-09T04:17:56.597Z,91.59
2022-10-09T04:20:23.910Z,91.73
2022-10-09T04:22:51.400Z,91.72
2022-10-09T04:25:18.862Z,91.84
2022-10-09T04:27:46.073Z,91.74
2022-10-09T04:30:13.539Z,91.80
2022-10-09T04:32:43.829Z,91.05
2022-10-09T04:35:11.049Z,91.94
2022-10-09T04:37:38.322Z,91.35
2022-10-09T04:40:05.765Z,91.16
2022-10-09T04:42:32.954Z,92.11
2022-10-09T04:45:00.160Z,91.44
2022-10-09T04:47:27.474Z,92.17
2022-10-09T04:49:54.885Z,91.36
2022-10-09T04:52:22.105Z,91.33
2022-10-09T04:54:49.341Z,91.35
2022-10-09T04:57:16.711Z,91.45
2022-10-09T04:59:43.964Z,92.15
2022-10-09T05:02:11.195Z,91.97
2022-10-09T05:04:38.481Z,91.93
2022-10-09T05:07:05.686Z,92.22
2022-10-09T05:09:32.946Z,91.78
2022-10-09T05:12:00.181Z,91.29
2022-10-09T05:14:27.424Z,92.04
2022-10-09T05:17:13.071Z,91.16
2022-10-09T05:19:41.580Z,91.44
2022-10-09T05:22:08.779Z,90.71
2022-10-09T05:24:35.994Z,91.13
2022-10-09T05:27:03.332Z,91.98
2022-10-09T05:29:30.629Z,92.34
2022-10-09T05:31:57.930Z,92.39
2022-10-09T05:34:25.198Z,91.85
2022-10-09T05:36:52.411Z,92.44
2022-10-09T05:39:19.581Z,92.06
2022-10-09T05:41:46.770Z,92.84
2022-10-09T05:44:14.042Z,91.85
2022-10-09T05:46:45.753Z,91.72
2022-10-09T05:49:13.140Z,92.48
2022-10-09T05:51:42.825Z,92.44
2022-10-09T05:54:15.101Z,91.54
2022-10-09T05:56:42.953Z,92.44
2022-10-09T05:59:13.841Z,92.38
2022-10-09T06:01:47.174Z,92.93
2022-10-09T06:04:25.547Z,92.18
2022-10-09T06:06:52.919Z,92.49
2022-10-09T06:09:23.280Z,92.54
2022-10-09T06:11:51.624Z,93.39
2022-10-09T06:14:22.195Z,93.76
2022-10-09T06:16:49.847Z,93.96
2022-10-09T06:19:24.371Z,93.45
2022-10-09T06:21:52.142Z,93.25
2022-10-09T06:24:28.867Z,93.46
2022-10-09T06:26:57.814Z,93.58
2022-10-09T06:29:25.657Z,93.96
2022-10-09T06:31:53.166Z,93.13
2022-10-09T06:34:20.703Z,93.62
2022-10-09T06:36:47.931Z,93.46
2022-10-09T06:39:19.638Z,93.18
2022-10-09T06:41:47.409Z,93.37
2022-10-09T06:44:17.229Z,93.94
2022-10-09T06:46:45.520Z,94.20
2022-10-09T06:49:13.334Z,94.13
2022-10-09T06:51:41.812Z,94.26
2022-10-09T06:54:14.508Z,95.94
2022-10-09T06:56:45.672Z,95.63
2022-10-09T06:59:13.156Z,95.20
2022-10-09T07:01:40.623Z,95.27
2022-10-09T07:04:11.735Z,95.45
2022-10-09T07:06:41.997Z,95.21
2022-10-09T07:09:11.532Z,94.86
2022-10-09T07:11:40.930Z,94.31
2022-10-09T07:14:08.317Z,93.52
2022-10-09T07:16:41.980Z,93.21
2022-10-09T07:19:11.338Z,92.12
2022-10-09T07:21:43.005Z,92.17
2022-10-09T07:24:11.381Z,90.20
2022-10-09T07:26:43.954Z,89.23
2022-10-09T07:29:14.810Z,89.49
2022-10-09T07:31:46.336Z,89.19
2022-10-09T07:34:16.247Z,88.01
2022-10-09T07:36:44.374Z,87.46
2022-10-09T07:39:11.724Z,87.18
2022-10-09T07:41:39.065Z,87.28
2022-10-09T07:44:06.435Z,86.17
2022-10-09T07:46:35.911Z,85.36
2022-10-09T07:49:05.480Z,85.19
2022-10-09T07:51:35.059Z,85.10
2022-10-09T07:54:04.664Z,85.59
2022-10-09T07:56:34.437Z,85.15
2022-10-09T07:59:12.067Z,84.94
2022-10-09T08:01:46.870Z,83.63
2022-10-09T08:04:14.568Z,83.33
2022-10-09T08:09:31.397Z,83.50
2022-10-09T08:12:02.289Z,83.18
2022-10-09T08:14:29.620Z,82.75
2022-10-09T08:16:56.934Z,82.68
2022-10-09T08:19:42.445Z,82.38
2022-10-09T08:22:14.314Z,81.56
2022-10-09T08:24:41.759Z,79.49
2022-10-09T08:27:21.543Z,78.77
2022-10-09T08:29:50.082Z,79.92
2022-10-09T08:32:21.663Z,80.09
2022-10-09T08:35:09.802Z,78.17
2022-10-09T08:37:37.372Z,81.04
2022-10-09T08:40:08.331Z,78.60
2022-10-09T08:42:49.792Z,78.73
2022-10-09T08:45:19.002Z,79.20
2022-10-09T08:47:51.011Z,77.17
2022-10-09T08:53:35.369Z,77.90
2022-10-09T08:56:06.253Z,76.84
2022-10-09T08:58:35.863Z,76.14
2022-10-09T09:01:17.283Z,75.92
2022-10-09T09:04:16.864Z,75.18
2022-10-09T09:06:49.869Z,75.25
2022-10-09T09:09:34.435Z,76.11
2022-10-09T09:12:04.621Z,77.38
2022-10-09T09:14:40.284Z,76.68
2022-10-09T09:17:44.875Z,78.03
2022-10-09T09:20:27.104Z,76.74
2022-10-09T09:22:54.418Z,76.35
2022-10-09T09:25:28.376Z,75.16
2022-10-09T09:28:00.309Z,74.18
2022-10-09T09:30:41.437Z,77.20
2022-10-09T09:33:11.823Z,75.70
2022-10-09T09:35:49.598Z,74.13
2022-10-09T09:38:17.026Z,73.54
2022-10-09T09:40:47.295Z,73.22
2022-10-09T09:43:18.883Z,71.99
2022-10-09T09:45:46.550Z,71.25
2022-10-09T09:48:35.035Z,72.43
2022-10-09T09:51:27.998Z,72.99
2022-10-09T09:53:59.115Z,72.56
2022-10-09T09:57:11.221Z,72.59
2022-10-09T09:59:37.508Z,71.47
2022-10-09T10:02:12.897Z,70.89
2022-10-09T10:04:54.005Z,68.73
2022-10-09T10:07:36.249Z,69.97
2022-10-09T10:10:25.827Z,68.29
2022-10-09T10:12:54.500Z,68.66
2022-10-09T10:15:28.852Z,71.13
2022-10-09T10:18:12.641Z,68.67
2022-10-09T10:20:56.493Z,67.95
2022-10-09T10:23:56.062Z,70.16
2022-10-09T10:26:27.052Z,70.58
2022-10-09T10:29:03.157Z,69.37
2022-10-09T10:31:45.781Z,70.75
2022-10-09T10:41:51.947Z,65.33
2022-10-09T10:45:00.802Z,65.56
2022-10-09T10:47:31.394Z,66.54
2022-10-09T10:50:22.934Z,65.65
2022-10-09T10:53:38.714Z,64.51
2022-10-09T10:56:19.583Z,63.44
2022-10-09T10:59:29.580Z,66.13
2022-10-09T11:02:26.686Z,66.64
2022-10-09T11:05:09.917Z,64.98
2022-10-09T11:08:03.927Z,60.69
2022-10-09T11:10:50.567Z,61.32
2022-10-09T11:13:32.561Z,61.70
2022-10-09T11:16:30.049Z,60.20
2022-10-09T11:19:16.298Z,61.61
2022-10-09T11:21:57.738Z,63.96
2022-10-09T11:24:49.475Z,62.86
2022-10-09T11:27:41.600Z,62.71
2022-10-09T11:30:16.496Z,55.79
2022-10-09T11:33:03.407Z,62.34
2022-10-09T11:35:38.050Z,59.80
2022-10-09T11:38:14.259Z,55.81
2022-10-09T11:40:43.546Z,54.26
2022-10-09T11:43:19.964Z,55.06
2022-10-09T11:46:13.300Z,57.41
2022-10-09T11:48:53.723Z,58.15
2022-10-09T11:51:23.585Z,57.39
2022-10-09T11:53:51.971Z,58.30
2022-10-09T11:56:26.611Z,58.30
2022-10-09T11:59:00.476Z,57.75
2022-10-09T12:01:41.911Z,56.50
2022-10-09T12:04:23.922Z,57.79
2022-10-09T12:07:01.657Z,56.16
2022-10-09T12:09:36.185Z,58.37
2022-10-09T12:12:07.573Z,56.22
2022-10-09T12:14:37.286Z,56.49
2022-10-09T12:17:22.787Z,57.07
2022-10-09T12:20:00.172Z,55.50
2022-10-09T12:22:30.771Z,56.93
2022-10-09T12:25:07.511Z,55.17
2022-10-09T12:27:37.343Z,56.96
2022-10-09T12:30:14.332Z,57.16
2022-10-09T12:32:48.619Z,57.42
2022-10-09T12:35:32.286Z,58.10
2022-10-09T12:37:59.865Z,58.49
2022-10-09T12:40:32.683Z,59.02
2022-10-09T12:43:07.623Z,59.53
2022-10-09T12:45:34.935Z,57.85
2022-10-09T12:48:10.780Z,58.06
2022-10-09T12:50:38.250Z,59.19
2022-10-09T12:53:12.365Z,58.45
2022-10-09T12:55:48.847Z,58.99
2022-10-09T12:58:23.531Z,58.76
2022-10-09T13:00:53.498Z,58.32
2022-10-09T13:03:37.308Z,57.88
2022-10-09T13:06:07.445Z,58.51
2022-10-09T13:08:39.819Z,58.33
2022-10-09T13:11:17.499Z,58.99
2022-10-09T13:13:49.716Z,58.53
2022-10-09T13:16:17.259Z,58.88
2022-10-09T13:18:54.931Z,58.99
2022-10-09T13:21:31.363Z,57.81
2022-10-09T13:24:13.185Z,57.68
2022-10-09T13:26:42.903Z,58.66
2022-10-09T13:29:11.494Z,55.89
2022-10-09T13:31:43.545Z,57.45
2022-10-09T13:34:12.691Z,56.45
2022-10-09T13:36:40.197Z,58.06
2022-10-09T13:39:09.405Z,57.89
2022-10-09T13:41:36.572Z,57.20
2022-10-09T13:44:03.883Z,57.54
2022-10-09T13:46:31.219Z,57.03
2022-10-09T13:49:03.836Z,56.73
2022-10-09T13:51:32.047Z,57.35
2022-10-09T13:53:59.352Z,56.87
2022-10-09T13:56:26.626Z,57.75
2022-10-09T13:58:56.539Z,57.31
2022-10-09T14:01:24.107Z,57.74
2022-10-09T14:03:51.433Z,58.29
2022-10-09T14:06:22.295Z,58.10
2022-10-09T14:08:50.148Z,58.62
2022-10-09T14:11:18.630Z,57.64
2022-10-09T14:13:46.103Z,57.73
2022-10-09T14:16:13.374Z,57.72
2022-10-09T14:18:40.825Z,58.21
2022-10-09T14:21:14.820Z,59.14
2022-10-09T14:23:44.874Z,58.02
2022-10-09T14:26:13.623Z,57.54
2022-10-09T14:28:41.766Z,57.96
2022-10-09T14:31:09.147Z,57.82
2022-10-09T14:33:36.367Z,57.44
2022-10-09T14:36:14.837Z,57.46
2022-10-09T14:38:42.898Z,58.20
2022-10-09T14:41:10.603Z,58.60
2022-10-09T14:43:38.164Z,58.43
2022-10-09T14:46:12.299Z,60.17
2022-10-09T14:48:40.226Z,59.10
2022-10-09T14:51:10.752Z,59.02
2022-10-09T14:53:38.163Z,59.63
2022-10-09T14:56:07.480Z,58.90
2022-10-09T14:58:36.064Z,59.47
2022-10-09T15:01:04.193Z,60.71
2022-10-09T15:03:32.075Z,59.78
2022-10-09T15:06:01.171Z,59.52
2022-10-09T15:08:31.108Z,60.30
2022-10-09T15:10:58.577Z,59.93
2022-10-09T15:13:26.892Z,59.32
2022-10-09T15:16:00.116Z,60.09
2022-10-09T15:18:28.316Z,60.29
2022-10-09T15:20:56.282Z,60.91
2022-10-09T15:23:23.423Z,61.23
2022-10-09T15:25:51.665Z,60.99
2022-10-09T15:28:19.119Z,61.61
2022-10-09T15:30:47.923Z,61.47
2022-10-09T15:33:15.126Z,61.48
2022-10-09T15:35:42.287Z,61.87
2022-10-09T15:38:17.447Z,62.40
2022-10-09T15:40:49.915Z,62.65
2022-10-09T15:43:21.784Z,62.94
2022-10-09T15:45:49.281Z,62.36
2022-10-09T15:48:18.371Z,62.56
2022-10-09T15:50:46.633Z,61.28
2022-10-09T15:53:14.942Z,61.82
2022-10-09T15:55:50.353Z,61.83
2022-10-09T15:58:20.910Z,61.80
2022-10-09T16:00:50.126Z,62.36
2022-10-09T16:03:18.079Z,62.42
2022-10-09T16:05:50.883Z,62.64
2022-10-09T16:08:19.538Z,62.71
2022-10-09T16:10:49.397Z,62.47
2022-10-09T16:13:17.044Z,63.06
2022-10-09T16:15:51.107Z,63.69
2022-10-09T16:18:25.420Z,64.34
2022-10-09T16:20:52.648Z,65.33
2022-10-09T16:23:19.827Z,65.34
2022-10-09T16:25:58.276Z,66.16
2022-10-09T16:28:28.731Z,66.42
2022-10-09T16:30:59.488Z,66.55
2022-10-09T16:33:27.227Z,67.43
2022-10-09T16:35:54.430Z,67.74
2022-10-09T16:38:21.649Z,68.03
2022-10-09T16:41:01.370Z,68.83
2022-10-09T16:43:29.298Z,69.14
2022-10-09T16:45:56.445Z,69.41
2022-10-09T16:48:23.602Z,69.47
2022-10-09T16:50:50.816Z,70.26
2022-10-09T16:53:18.220Z,70.88
2022-10-09T16:55:45.369Z,70.89
2022-10-09T16:58:12.573Z,71.37
2022-10-09T17:00:39.770Z,71.79
2022-10-09T17:03:06.968Z,72.08
2022-10-09T17:05:39.269Z,72.46
2022-10-09T17:08:06.737Z,72.59
2022-10-09T17:10:33.964Z,73.84
2022-10-09T17:13:01.141Z,74.05
2022-10-09T17:15:28.316Z,74.24
2022-10-09T17:17:55.551Z,74.41
2022-10-09T17:20:22.718Z,75.29
2022-10-09T17:22:50.200Z,74.86
2022-10-09T17:25:17.875Z,75.57
2022-10-09T17:27:45.073Z,75.91
2022-10-09T17:30:12.634Z,76.06
2022-10-09T17:32:39.803Z,76.50
2022-10-09T17:35:07.441Z,75.95
2022-10-09T17:37:34.688Z,76.01
2022-10-09T17:40:01.857Z,77.22
2022-10-09T17:42:29.104Z,77.20
2022-10-09T17:44:56.260Z,77.52
2022-10-09T17:47:23.506Z,77.62
2022-10-09T17:49:50.665Z,77.96
2022-10-09T17:52:17.925Z,77.88
2022-10-09T17:54:45.261Z,77.53
2022-10-09T17:57:13.305Z,77.34
2022-10-09T17:59:40.499Z,77.81
2022-10-09T18:02:07.722Z,78.76
2022-10-09T18:04:34.886Z,78.99
2022-10-09T18:07:02.093Z,78.98
2022-10-09T18:09:29.251Z,79.31
2022-10-09T18:11:56.626Z,79.33
2022-10-09T18:14:23.829Z,78.90
2022-10-09T18:16:51.026Z,79.60
2022-10-09T18:19:18.551Z,79.04
2022-10-09T18:21:47.813Z,79.98
2022-10-09T18:24:14.938Z,79.54
2022-10-09T18:26:42.647Z,80.66
2022-10-09T18:29:09.823Z,80.06
2022-10-09T18:31:38.658Z,81.02
2022-10-09T18:34:06.100Z,80.77
2022-10-09T18:36:35.128Z,80.69
2022-10-09T18:39:13.110Z,81.08
2022-10-09T18:41:40.481Z,81.08
2022-10-09T18:44:17.145Z,81.77
2022-10-09T18:46:53.827Z,81.76
2022-10-09T18:49:24.678Z,81.72
2022-10-09T18:51:53.244Z,81.47
2022-10-09T18:54:22.911Z,81.60
2022-10-09T18:56:50.147Z,81.97
2022-10-09T18:59:18.776Z,82.21
2022-10-09T19:01:46.345Z,82.56
2022-10-09T19:04:13.713Z,82.60
2022-10-09T19:06:41.134Z,82.96
2022-10-09T19:09:08.309Z,84.03
2022-10-09T19:11:35.920Z,83.62
2022-10-09T19:14:03.754Z,83.20
2022-10-09T19:16:32.992Z,83.98
2022-10-09T19:19:00.312Z,84.39
2022-10-09T19:21:27.818Z,84.33
2022-10-09T19:23:55.480Z,84.01
2022-10-09T19:26:23.360Z,83.60
2022-10-09T19:28:50.703Z,84.07
2022-10-09T19:31:19.126Z,84.47
2022-10-09T19:33:46.378Z,83.90
2022-10-09T19:36:14.080Z,84.27
2022-10-09T19:38:42.078Z,85.17
2022-10-09T19:41:12.079Z,85.31
2022-10-09T19:43:39.958Z,85.02
2022-10-09T19:46:13.956Z,85.34
2022-10-09T19:48:41.448Z,85.59
2022-10-09T19:51:11.195Z,85.57
2022-10-09T19:53:38.597Z,85.08
2022-10-09T19:56:24.903Z,85.74
2022-10-09T19:58:52.238Z,85.74
2022-10-09T20:01:25.313Z,86.21
2022-10-09T20:04:00.882Z,86.27
2022-10-09T20:06:28.581Z,86.11
2022-10-09T20:08:55.905Z,86.39
2022-10-09T20:11:24.192Z,86.17
2022-10-09T20:13:55.703Z,86.03
2022-10-09T20:16:24.496Z,85.99
2022-10-09T20:18:52.078Z,85.76
2022-10-09T20:21:19.867Z,86.27
2022-10-09T20:23:47.051Z,86.41
2022-10-09T20:26:17.159Z,86.77
2022-10-09T20:28:45.102Z,86.62
2022-10-09T20:31:17.976Z,86.51
2022-10-09T20:33:46.002Z,86.78
2022-10-09T20:36:36.993Z,87.03
2022-10-09T20:39:06.818Z,87.23
2022-10-09T20:41:34.844Z,87.23
2022-10-09T20:44:03.307Z,87.57
2022-10-09T20:46:33.008Z,87.60
2022-10-09T20:49:08.344Z,87.49
2022-10-09T20:51:36.855Z,87.75
2022-10-09T20:54:04.607Z,87.91
2022-10-09T20:56:32.741Z,88.41
2022-10-09T20:59:00.224Z,88.36
2022-10-09T21:01:28.743Z,88.77
2022-10-09T21:03:57.233Z,88.59
2022-10-09T21:06:24.882Z,88.92
2022-10-09T21:08:52.102Z,88.87
2022-10-09T21:11:19.924Z,88.88
2022-10-09T21:13:47.732Z,89.64
2022-10-09T21:16:20.237Z,89.95
2022-10-09T21:18:47.994Z,89.46
2022-10-09T21:21:17.437Z,89.67
2022-10-09T21:23:45.295Z,89.34
2022-10-09T21:26:14.637Z,89.31
2022-10-09T21:28:41.935Z,89.54
2022-10-09T21:31:16.284Z,90.07
2022-10-09T21:33:43.775Z,90.30
2022-10-09T21:36:13.311Z,90.05
2022-10-09T21:38:40.487Z,90.23
2022-10-09T21:41:07.667Z,90.56
2022-10-09T21:43:37.001Z,90.79
2022-10-09T21:46:04.136Z,90.01
2022-10-09T21:48:31.301Z,90.95
2022-10-09T21:50:58.459Z,90.59
2022-10-09T21:53:25.647Z,90.65
2022-10-09T21:55:53.105Z,90.49
2022-10-09T21:58:20.288Z,91.07
2022-10-09T22:00:54.575Z,90.83
2022-10-09T22:03:23.247Z,90.94
2022-10-09T22:05:50.450Z,90.53
2022-10-09T22:08:17.665Z,90.55
2022-10-09T22:10:45.082Z,91.65
2022-10-09T22:13:12.350Z,90.94
2022-10-09T22:15:44.891Z,91.53
2022-10-09T22:18:15.065Z,90.34
2022-10-09T22:20:43.725Z,91.08
2022-10-09T22:23:11.744Z,90.32
2022-10-09T22:25:39.311Z,90.68
2022-10-09T22:28:07.085Z,90.33
2022-10-09T22:30:34.800Z,91.15
2022-10-09T22:33:04.276Z,91.30
2022-10-09T22:35:31.484Z,91.00
2022-10-09T22:37:58.640Z,90.89
2022-10-09T22:40:25.905Z,91.67
2022-10-09T22:42:53.407Z,90.95
2022-10-09T22:45:20.869Z,91.19
2022-10-09T22:47:48.680Z,91.17
2022-10-09T22:50:15.975Z,91.07
2022-10-09T22:52:43.175Z,91.48
2022-10-09T22:55:10.447Z,90.59
2022-10-09T22:57:37.636Z,91.60
2022-10-09T23:00:05.525Z,91.17
2022-10-09T23:02:33.104Z,91.28
2022-10-09T23:05:00.260Z,91.46
2022-10-09T23:07:27.641Z,91.64
2022-10-09T23:09:54.828Z,91.33
2022-10-09T23:12:22.036Z,91.51
2022-10-09T23:14:51.146Z,92.02
2022-10-09T23:17:18.323Z,91.59
2022-10-09T23:19:45.492Z,91.73
2022-10-09T23:22:13.024Z,91.58
2022-10-09T23:24:40.207Z,92.01
2022-10-09T23:27:07.588Z,92.58
2022-10-09T23:29:34.765Z,91.73
2022-10-09T23:32:01.936Z,91.82
2022-10-09T23:34:29.297Z,92.48
2022-10-09T23:36:56.467Z,92.51
2022-10-09T23:39:23.964Z,92.17
2022-10-09T23:41:51.546Z,92.73
2022-10-09T23:44:21.967Z,92.21
2022-10-09T23:46:49.527Z,91.96
2022-10-09T23:49:16.718Z,93.10
2022-10-09T23:51:43.891Z,92.81
2022-10-09T23:54:11.479Z,93.72
2022-10-09T23:56:38.723Z,94.11
2022-10-09T23:59:06.633Z,93.97
